sensor_id;sensor_type;location;lat;lon;timestamp;temperature;humidity
44559;DHT22;30270;40.238;18.256;2022-07-15T00:00:06;25.10;91.50
44559;DHT22;30270;40.238;18.256;2022-07-15T00:02:36;25.10;91.50
44559;DHT22;30270;40.238;18.256;2022-07-15T00:05:05;25.10;91.60
44559;DHT22;30270;40.238;18.256;2022-07-15T00:07:34;25.10;91.80
44559;DHT22;30270;40.238;18.256;2022-07-15T00:10:03;25.10;91.80
44559;DHT22;30270;40.238;18.256;2022-07-15T00:12:51;25.10;91.90
44559;DHT22;30270;40.238;18.256;2022-07-15T00:15:21;25.10;92.00
44559;DHT22;30270;40.238;18.256;2022-07-15T00:17:49;25.10;92.00
44559;DHT22;30270;40.238;18.256;2022-07-15T00:20:18;25.10;92.00
44559;DHT22;30270;40.238;18.256;2022-07-15T00:22:47;25.00;92.00
44559;DHT22;30270;40.238;18.256;2022-07-15T00:25:16;25.00;92.20
44559;DHT22;30270;40.238;18.256;2022-07-15T00:27:54;25.00;92.30
44559;DHT22;30270;40.238;18.256;2022-07-15T00:30:23;25.00;92.30
44559;DHT22;30270;40.238;18.256;2022-07-15T00:32:51;25.00;92.50
44559;DHT22;30270;40.238;18.256;2022-07-15T00:35:19;25.00;92.60
44559;DHT22;30270;40.238;18.256;2022-07-15T00:37:47;24.90;92.70
44559;DHT22;30270;40.238;18.256;2022-07-15T00:40:14;24.90;92.80
44559;DHT22;30270;40.238;18.256;2022-07-15T00:42:42;24.90;92.90
44559;DHT22;30270;40.238;18.256;2022-07-15T00:45:15;24.90;93.00
44559;DHT22;30270;40.238;18.256;2022-07-15T00:47:48;24.90;93.10
44559;DHT22;30270;40.238;18.256;2022-07-15T00:50:17;24.90;93.20
44559;DHT22;30270;40.238;18.256;2022-07-15T00:52:49;24.90;93.30
44559;DHT22;30270;40.238;18.256;2022-07-15T00:55:17;24.90;93.50
44559;DHT22;30270;40.238;18.256;2022-07-15T00:57:46;24.80;93.50
44559;DHT22;30270;40.238;18.256;2022-07-15T01:00:15;24.80;93.60
44559;DHT22;30270;40.238;18.256;2022-07-15T01:02:44;24.80;93.70
44559;DHT22;30270;40.238;18.256;2022-07-15T01:05:19;24.80;94.00
44559;DHT22;30270;40.238;18.256;2022-07-15T01:07:48;24.80;93.90
44559;DHT22;30270;40.238;18.256;2022-07-15T01:10:21;24.80;94.00
44559;DHT22;30270;40.238;18.256;2022-07-15T01:12:50;24.80;94.00
44559;DHT22;30270;40.238;18.256;2022-07-15T01:15:25;24.80;94.10
44559;DHT22;30270;40.238;18.256;2022-07-15T01:17:53;24.80;94.20
44559;DHT22;30270;40.238;18.256;2022-07-15T01:20:22;24.80;94.10
44559;DHT22;30270;40.238;18.256;2022-07-15T01:22:55;24.70;94.00
44559;DHT22;30270;40.238;18.256;2022-07-15T01:25:30;24.70;94.10
44559;DHT22;30270;40.238;18.256;2022-07-15T01:27:58;24.70;94.20
44559;DHT22;30270;40.238;18.256;2022-07-15T01:30:27;24.70;94.30
44559;DHT22;30270;40.238;18.256;2022-07-15T01:32:55;24.70;94.40
44559;DHT22;30270;40.238;18.256;2022-07-15T01:35:23;24.60;94.50
44559;DHT22;30270;40.238;18.256;2022-07-15T01:37:51;24.60;94.60
44559;DHT22;30270;40.238;18.256;2022-07-15T01:40:18;24.60;94.70
44559;DHT22;30270;40.238;18.256;2022-07-15T01:42:46;24.50;94.90
44559;DHT22;30270;40.238;18.256;2022-07-15T01:45:15;24.50;95.00
44559;DHT22;30270;40.238;18.256;2022-07-15T01:47:48;24.50;95.00
44559;DHT22;30270;40.238;18.256;2022-07-15T01:50:36;24.40;95.10
44559;DHT22;30270;40.238;18.256;2022-07-15T01:53:11;24.40;95.20
44559;DHT22;30270;40.238;18.256;2022-07-15T01:55:40;24.40;95.30
44559;DHT22;30270;40.238;18.256;2022-07-15T01:58:07;24.40;95.30
44559;DHT22;30270;40.238;18.256;2022-07-15T02:00:37;24.40;95.40
44559;DHT22;30270;40.238;18.256;2022-07-15T02:03:06;24.40;95.50
44559;DHT22;30270;40.238;18.256;2022-07-15T02:05:35;24.40;95.50
44559;DHT22;30270;40.238;18.256;2022-07-15T02:08:03;24.30;95.60
44559;DHT22;30270;40.238;18.256;2022-07-15T02:10:33;24.30;95.70
44559;DHT22;30270;40.238;18.256;2022-07-15T02:13:15;24.30;95.80
44559;DHT22;30270;40.238;18.256;2022-07-15T02:15:49;24.30;95.90
44559;DHT22;30270;40.238;18.256;2022-07-15T02:18:17;24.30;96.00
44559;DHT22;30270;40.238;18.256;2022-07-15T02:20:45;24.30;96.10
44559;DHT22;30270;40.238;18.256;2022-07-15T02:23:13;24.30;96.20
44559;DHT22;30270;40.238;18.256;2022-07-15T02:25:41;24.30;96.30
44559;DHT22;30270;40.238;18.256;2022-07-15T02:28:09;24.30;96.30
44559;DHT22;30270;40.238;18.256;2022-07-15T02:30:39;24.40;96.40
44559;DHT22;30270;40.238;18.256;2022-07-15T02:33:07;24.40;96.40
44559;DHT22;30270;40.238;18.256;2022-07-15T02:35:36;24.40;96.50
44559;DHT22;30270;40.238;18.256;2022-07-15T02:38:05;24.30;96.50
44559;DHT22;30270;40.238;18.256;2022-07-15T02:40:33;24.30;96.50
44559;DHT22;30270;40.238;18.256;2022-07-15T02:43:03;24.30;96.50
44559;DHT22;30270;40.238;18.256;2022-07-15T02:45:34;24.20;96.50
44559;DHT22;30270;40.238;18.256;2022-07-15T02:48:06;24.20;96.60
44559;DHT22;30270;40.238;18.256;2022-07-15T02:50:37;24.20;96.60
44559;DHT22;30270;40.238;18.256;2022-07-15T02:53:05;24.10;96.60
44559;DHT22;30270;40.238;18.256;2022-07-15T02:55:36;24.10;96.60
44559;DHT22;30270;40.238;18.256;2022-07-15T02:58:04;24.10;96.60
44559;DHT22;30270;40.238;18.256;2022-07-15T03:00:32;24.10;96.60
44559;DHT22;30270;40.238;18.256;2022-07-15T03:03:03;24.10;96.60
44559;DHT22;30270;40.238;18.256;2022-07-15T03:05:34;24.10;96.60
44559;DHT22;30270;40.238;18.256;2022-07-15T03:08:02;24.10;96.70
44559;DHT22;30270;40.238;18.256;2022-07-15T03:10:30;24.10;96.70
44559;DHT22;30270;40.238;18.256;2022-07-15T03:12:57;24.00;96.60
44559;DHT22;30270;40.238;18.256;2022-07-15T03:15:26;24.00;96.60
44559;DHT22;30270;40.238;18.256;2022-07-15T03:17:54;24.00;96.50
44559;DHT22;30270;40.238;18.256;2022-07-15T03:20:21;24.00;96.50
44559;DHT22;30270;40.238;18.256;2022-07-15T03:22:50;24.00;96.50
44559;DHT22;30270;40.238;18.256;2022-07-15T03:25:17;24.00;96.40
44559;DHT22;30270;40.238;18.256;2022-07-15T03:27:45;24.00;96.30
44559;DHT22;30270;40.238;18.256;2022-07-15T03:30:14;24.00;96.30
44559;DHT22;30270;40.238;18.256;2022-07-15T03:32:42;24.00;96.30
44559;DHT22;30270;40.238;18.256;2022-07-15T03:35:10;24.00;96.30
44559;DHT22;30270;40.238;18.256;2022-07-15T03:37:39;24.00;96.40
44559;DHT22;30270;40.238;18.256;2022-07-15T03:40:07;24.00;96.20
44559;DHT22;30270;40.238;18.256;2022-07-15T03:42:38;24.00;96.10
44559;DHT22;30270;40.238;18.256;2022-07-15T03:45:06;24.00;96.00
44559;DHT22;30270;40.238;18.256;2022-07-15T03:47:34;24.10;96.00
44559;DHT22;30270;40.238;18.256;2022-07-15T03:50:05;24.10;95.80
44559;DHT22;30270;40.238;18.256;2022-07-15T03:52:35;24.20;95.60
44559;DHT22;30270;40.238;18.256;2022-07-15T03:55:05;24.20;95.40
44559;DHT22;30270;40.238;18.256;2022-07-15T03:57:33;24.20;95.20
44559;DHT22;30270;40.238;18.256;2022-07-15T04:00:00;24.30;95.10
44559;DHT22;30270;40.238;18.256;2022-07-15T04:02:28;24.30;94.90
44559;DHT22;30270;40.238;18.256;2022-07-15T04:04:57;24.30;94.70
44559;DHT22;30270;40.238;18.256;2022-07-15T04:07:25;24.40;94.60
44559;DHT22;30270;40.238;18.256;2022-07-15T04:09:54;24.50;94.50
44559;DHT22;30270;40.238;18.256;2022-07-15T04:12:22;24.50;94.20
44559;DHT22;30270;40.238;18.256;2022-07-15T04:14:49;24.60;94.10
44559;DHT22;30270;40.238;18.256;2022-07-15T04:17:17;24.70;94.00
44559;DHT22;30270;40.238;18.256;2022-07-15T04:19:46;24.80;93.80
44559;DHT22;30270;40.238;18.256;2022-07-15T04:22:13;24.80;93.50
44559;DHT22;30270;40.238;18.256;2022-07-15T04:24:50;25.00;93.50
44559;DHT22;30270;40.238;18.256;2022-07-15T04:27:18;25.10;93.20
44559;DHT22;30270;40.238;18.256;2022-07-15T04:29:46;25.10;93.10
44559;DHT22;30270;40.238;18.256;2022-07-15T04:32:15;25.30;93.00
44559;DHT22;30270;40.238;18.256;2022-07-15T04:34:47;25.40;92.80
44559;DHT22;30270;40.238;18.256;2022-07-15T04:37:17;25.50;92.60
44559;DHT22;30270;40.238;18.256;2022-07-15T04:39:50;25.60;92.40
44559;DHT22;30270;40.238;18.256;2022-07-15T04:42:17;25.70;92.30
44559;DHT22;30270;40.238;18.256;2022-07-15T04:44:46;25.90;92.10
44559;DHT22;30270;40.238;18.256;2022-07-15T04:47:16;26.00;92.00
44559;DHT22;30270;40.238;18.256;2022-07-15T04:49:51;26.10;91.80
44559;DHT22;30270;40.238;18.256;2022-07-15T04:52:43;26.20;91.60
44559;DHT22;30270;40.238;18.256;2022-07-15T04:55:11;26.40;91.40
44559;DHT22;30270;40.238;18.256;2022-07-15T04:57:39;26.50;91.20
44559;DHT22;30270;40.238;18.256;2022-07-15T05:00:08;26.60;91.10
44559;DHT22;30270;40.238;18.256;2022-07-15T05:02:38;26.70;90.90
44559;DHT22;30270;40.238;18.256;2022-07-15T05:05:06;26.80;90.70
44559;DHT22;30270;40.238;18.256;2022-07-15T05:07:35;26.90;90.50
44559;DHT22;30270;40.238;18.256;2022-07-15T05:10:07;27.00;90.30
44559;DHT22;30270;40.238;18.256;2022-07-15T05:12:38;27.10;90.20
44559;DHT22;30270;40.238;18.256;2022-07-15T05:15:06;27.20;90.10
44559;DHT22;30270;40.238;18.256;2022-07-15T05:17:34;27.30;89.80
44559;DHT22;30270;40.238;18.256;2022-07-15T05:20:03;27.40;89.70
44559;DHT22;30270;40.238;18.256;2022-07-15T05:22:31;27.50;89.40
44559;DHT22;30270;40.238;18.256;2022-07-15T05:24:59;27.60;89.10
44559;DHT22;30270;40.238;18.256;2022-07-15T05:27:27;27.70;89.00
44559;DHT22;30270;40.238;18.256;2022-07-15T05:29:55;27.80;88.50
44559;DHT22;30270;40.238;18.256;2022-07-15T05:32:22;27.80;88.30
44559;DHT22;30270;40.238;18.256;2022-07-15T05:34:50;27.90;88.10
44559;DHT22;30270;40.238;18.256;2022-07-15T05:37:18;28.10;87.90
44559;DHT22;30270;40.238;18.256;2022-07-15T05:39:46;28.20;87.60
44559;DHT22;30270;40.238;18.256;2022-07-15T05:42:33;28.30;87.20
44559;DHT22;30270;40.238;18.256;2022-07-15T05:45:01;28.40;86.60
44559;DHT22;30270;40.238;18.256;2022-07-15T05:47:29;28.60;86.20
44559;DHT22;30270;40.238;18.256;2022-07-15T05:49:57;28.70;85.80
44559;DHT22;30270;40.238;18.256;2022-07-15T05:52:27;28.70;85.30
44559;DHT22;30270;40.238;18.256;2022-07-15T05:54:56;28.90;85.20
44559;DHT22;30270;40.238;18.256;2022-07-15T05:57:24;28.90;84.60
44559;DHT22;30270;40.238;18.256;2022-07-15T05:59:51;29.10;84.50
44559;DHT22;30270;40.238;18.256;2022-07-15T06:02:19;29.20;84.30
44559;DHT22;30270;40.238;18.256;2022-07-15T06:04:46;29.30;83.80
44559;DHT22;30270;40.238;18.256;2022-07-15T06:07:14;29.40;83.30
44559;DHT22;30270;40.238;18.256;2022-07-15T06:09:42;29.50;82.90
44559;DHT22;30270;40.238;18.256;2022-07-15T06:12:10;29.60;82.70
44559;DHT22;30270;40.238;18.256;2022-07-15T06:14:37;29.60;82.50
44559;DHT22;30270;40.238;18.256;2022-07-15T06:17:09;29.80;82.30
44559;DHT22;30270;40.238;18.256;2022-07-15T06:19:37;29.90;82.10
44559;DHT22;30270;40.238;18.256;2022-07-15T06:22:04;30.00;81.20
44559;DHT22;30270;40.238;18.256;2022-07-15T06:24:34;30.10;80.30
44559;DHT22;30270;40.238;18.256;2022-07-15T06:27:01;30.10;80.00
44559;DHT22;30270;40.238;18.256;2022-07-15T06:29:29;30.30;80.10
44559;DHT22;30270;40.238;18.256;2022-07-15T06:31:56;30.30;79.70
44559;DHT22;30270;40.238;18.256;2022-07-15T06:34:24;30.40;79.30
44559;DHT22;30270;40.238;18.256;2022-07-15T06:36:52;30.50;79.30
44559;DHT22;30270;40.238;18.256;2022-07-15T06:39:19;30.60;78.30
44559;DHT22;30270;40.238;18.256;2022-07-15T06:41:47;30.70;77.30
44559;DHT22;30270;40.238;18.256;2022-07-15T06:44:16;30.80;77.00
44559;DHT22;30270;40.238;18.256;2022-07-15T06:46:53;30.90;75.40
44559;DHT22;30270;40.238;18.256;2022-07-15T06:49:27;31.00;74.60
44559;DHT22;30270;40.238;18.256;2022-07-15T06:51:54;31.10;73.70
44559;DHT22;30270;40.238;18.256;2022-07-15T06:54:22;31.10;72.40
44559;DHT22;30270;40.238;18.256;2022-07-15T06:56:50;31.20;72.10
44559;DHT22;30270;40.238;18.256;2022-07-15T06:59:18;31.40;71.90
44559;DHT22;30270;40.238;18.256;2022-07-15T07:01:46;31.50;70.90
44559;DHT22;30270;40.238;18.256;2022-07-15T07:04:13;31.60;70.40
44559;DHT22;30270;40.238;18.256;2022-07-15T07:06:42;31.60;69.30
44559;DHT22;30270;40.238;18.256;2022-07-15T07:09:10;31.60;69.10
44559;DHT22;30270;40.238;18.256;2022-07-15T07:11:38;31.50;68.70
44559;DHT22;30270;40.238;18.256;2022-07-15T07:14:06;31.60;69.20
44559;DHT22;30270;40.238;18.256;2022-07-15T07:16:34;31.60;69.40
44559;DHT22;30270;40.238;18.256;2022-07-15T07:19:02;31.70;69.60
44559;DHT22;30270;40.238;18.256;2022-07-15T07:21:29;31.80;69.10
44559;DHT22;30270;40.238;18.256;2022-07-15T07:23:58;31.90;68.80
44559;DHT22;30270;40.238;18.256;2022-07-15T07:26:27;32.00;68.20
44559;DHT22;30270;40.238;18.256;2022-07-15T07:28:54;32.10;67.80
44559;DHT22;30270;40.238;18.256;2022-07-15T07:31:22;32.20;67.40
44559;DHT22;30270;40.238;18.256;2022-07-15T07:33:55;32.20;68.00
44559;DHT22;30270;40.238;18.256;2022-07-15T07:36:24;32.20;68.50
44559;DHT22;30270;40.238;18.256;2022-07-15T07:38:52;32.20;68.30
44559;DHT22;30270;40.238;18.256;2022-07-15T07:41:20;32.30;67.00
44559;DHT22;30270;40.238;18.256;2022-07-15T07:43:48;32.10;65.20
44559;DHT22;30270;40.238;18.256;2022-07-15T07:46:16;32.10;66.10
44559;DHT22;30270;40.238;18.256;2022-07-15T07:48:44;32.10;65.60
44559;DHT22;30270;40.238;18.256;2022-07-15T07:51:12;32.10;66.50
44559;DHT22;30270;40.238;18.256;2022-07-15T07:53:39;32.20;67.40
44559;DHT22;30270;40.238;18.256;2022-07-15T07:56:07;32.20;67.10
44559;DHT22;30270;40.238;18.256;2022-07-15T07:58:35;32.30;66.10
44559;DHT22;30270;40.238;18.256;2022-07-15T08:01:03;32.40;65.90
44559;DHT22;30270;40.238;18.256;2022-07-15T08:03:31;32.30;65.40
44559;DHT22;30270;40.238;18.256;2022-07-15T08:05:58;32.40;66.90
44559;DHT22;30270;40.238;18.256;2022-07-15T08:08:26;32.30;67.40
44559;DHT22;30270;40.238;18.256;2022-07-15T08:10:56;32.30;66.70
44559;DHT22;30270;40.238;18.256;2022-07-15T08:13:26;32.10;64.80
44559;DHT22;30270;40.238;18.256;2022-07-15T08:15:54;32.00;66.70
44559;DHT22;30270;40.238;18.256;2022-07-15T08:18:25;32.10;66.60
44559;DHT22;30270;40.238;18.256;2022-07-15T08:20:53;32.20;67.30
44559;DHT22;30270;40.238;18.256;2022-07-15T08:23:21;32.20;68.30
44559;DHT22;30270;40.238;18.256;2022-07-15T08:25:50;32.30;67.60
44559;DHT22;30270;40.238;18.256;2022-07-15T08:28:18;32.30;67.00
44559;DHT22;30270;40.238;18.256;2022-07-15T08:30:46;32.40;67.60
44559;DHT22;30270;40.238;18.256;2022-07-15T08:33:14;32.50;68.60
44559;DHT22;30270;40.238;18.256;2022-07-15T08:35:43;32.50;67.20
44559;DHT22;30270;40.238;18.256;2022-07-15T08:38:11;32.50;66.00
44559;DHT22;30270;40.238;18.256;2022-07-15T08:40:39;32.50;66.70
44559;DHT22;30270;40.238;18.256;2022-07-15T08:43:08;32.50;66.80
44559;DHT22;30270;40.238;18.256;2022-07-15T08:45:37;32.50;66.40
44559;DHT22;30270;40.238;18.256;2022-07-15T08:48:06;32.50;66.10
44559;DHT22;30270;40.238;18.256;2022-07-15T08:50:35;32.50;65.40
44559;DHT22;30270;40.238;18.256;2022-07-15T08:53:04;32.50;66.00
44559;DHT22;30270;40.238;18.256;2022-07-15T08:55:32;32.60;66.10
44559;DHT22;30270;40.238;18.256;2022-07-15T08:58:00;32.40;66.50
44559;DHT22;30270;40.238;18.256;2022-07-15T09:00:28;32.30;66.80
44559;DHT22;30270;40.238;18.256;2022-07-15T09:02:58;32.50;68.00
44559;DHT22;30270;40.238;18.256;2022-07-15T09:05:36;32.50;67.70
44559;DHT22;30270;40.238;18.256;2022-07-15T09:08:13;32.30;66.70
44559;DHT22;30270;40.238;18.256;2022-07-15T09:10:52;32.40;66.90
44559;DHT22;30270;40.238;18.256;2022-07-15T09:13:37;32.50;66.20
44559;DHT22;30270;40.238;18.256;2022-07-15T09:16:10;32.70;66.00
44559;DHT22;30270;40.238;18.256;2022-07-15T09:18:40;32.70;66.50
44559;DHT22;30270;40.238;18.256;2022-07-15T09:21:22;32.70;64.80
44559;DHT22;30270;40.238;18.256;2022-07-15T09:23:51;32.70;65.50
44559;DHT22;30270;40.238;18.256;2022-07-15T09:26:33;32.90;65.80
44559;DHT22;30270;40.238;18.256;2022-07-15T09:29:02;33.00;65.20
44559;DHT22;30270;40.238;18.256;2022-07-15T09:31:59;33.00;65.10
44559;DHT22;30270;40.238;18.256;2022-07-15T09:35:04;32.90;65.70
44559;DHT22;30270;40.238;18.256;2022-07-15T09:37:31;32.60;66.70
44559;DHT22;30270;40.238;18.256;2022-07-15T09:39:59;32.70;67.10
44559;DHT22;30270;40.238;18.256;2022-07-15T09:42:28;32.70;65.10
44559;DHT22;30270;40.238;18.256;2022-07-15T09:45:18;32.50;65.30
44559;DHT22;30270;40.238;18.256;2022-07-15T09:48:07;32.50;67.00
44559;DHT22;30270;40.238;18.256;2022-07-15T09:50:36;32.60;67.40
44559;DHT22;30270;40.238;18.256;2022-07-15T09:53:12;32.70;66.50
44559;DHT22;30270;40.238;18.256;2022-07-15T09:55:41;32.80;66.40
44559;DHT22;30270;40.238;18.256;2022-07-15T09:58:09;32.80;66.10
44559;DHT22;30270;40.238;18.256;2022-07-15T10:00:39;32.80;65.90
44559;DHT22;30270;40.238;18.256;2022-07-15T10:03:07;32.80;66.50
44559;DHT22;30270;40.238;18.256;2022-07-15T10:05:36;32.50;66.20
44559;DHT22;30270;40.238;18.256;2022-07-15T10:08:09;32.50;65.90
44559;DHT22;30270;40.238;18.256;2022-07-15T10:10:38;32.60;66.00
44559;DHT22;30270;40.238;18.256;2022-07-15T10:13:30;32.60;66.50
44559;DHT22;30270;40.238;18.256;2022-07-15T10:19:12;32.50;66.90
44559;DHT22;30270;40.238;18.256;2022-07-15T10:30:22;32.20;67.70
44559;DHT22;30270;40.238;18.256;2022-07-15T10:35:52;32.30;67.90
44559;DHT22;30270;40.238;18.256;2022-07-15T10:38:38;32.50;68.70
44559;DHT22;30270;40.238;18.256;2022-07-15T10:41:11;32.70;68.80
44559;DHT22;30270;40.238;18.256;2022-07-15T10:43:44;32.50;67.10
44559;DHT22;30270;40.238;18.256;2022-07-15T10:48:50;32.50;67.50
44559;DHT22;30270;40.238;18.256;2022-07-15T10:56:55;32.50;67.90
44559;DHT22;30270;40.238;18.256;2022-07-15T10:59:25;32.60;67.50
44559;DHT22;30270;40.238;18.256;2022-07-15T11:04:30;32.70;67.00
44559;DHT22;30270;40.238;18.256;2022-07-15T11:12:14;32.70;68.70
44559;DHT22;30270;40.238;18.256;2022-07-15T11:14:54;32.70;67.70
44559;DHT22;30270;40.238;18.256;2022-07-15T11:20:07;32.70;68.40
44559;DHT22;30270;40.238;18.256;2022-07-15T11:22:43;32.80;69.10
44559;DHT22;30270;40.238;18.256;2022-07-15T11:25:22;32.80;68.40
44559;DHT22;30270;40.238;18.256;2022-07-15T11:33:13;32.90;66.60
44559;DHT22;30270;40.238;18.256;2022-07-15T11:35:49;32.90;65.50
44559;DHT22;30270;40.238;18.256;2022-07-15T11:38:21;33.00;65.60
44559;DHT22;30270;40.238;18.256;2022-07-15T11:40:56;32.90;65.90
44559;DHT22;30270;40.238;18.256;2022-07-15T11:43:43;32.90;65.80
44559;DHT22;30270;40.238;18.256;2022-07-15T11:46:30;32.80;65.50
44559;DHT22;30270;40.238;18.256;2022-07-15T11:48:59;32.80;64.60
44559;DHT22;30270;40.238;18.256;2022-07-15T11:51:29;32.90;64.90
44559;DHT22;30270;40.238;18.256;2022-07-15T11:53:58;32.80;65.20
44559;DHT22;30270;40.238;18.256;2022-07-15T11:56:25;32.80;65.10
44559;DHT22;30270;40.238;18.256;2022-07-15T11:58:56;32.70;64.80
44559;DHT22;30270;40.238;18.256;2022-07-15T12:01:26;32.70;65.20
44559;DHT22;30270;40.238;18.256;2022-07-15T12:03:57;32.60;64.00
44559;DHT22;30270;40.238;18.256;2022-07-15T12:06:30;32.50;64.30
44559;DHT22;30270;40.238;18.256;2022-07-15T12:09:01;32.50;64.40
44559;DHT22;30270;40.238;18.256;2022-07-15T12:11:38;32.60;65.10
44559;DHT22;30270;40.238;18.256;2022-07-15T12:14:26;32.60;64.50
44559;DHT22;30270;40.238;18.256;2022-07-15T12:16:54;32.50;62.30
44559;DHT22;30270;40.238;18.256;2022-07-15T12:19:25;32.50;62.50
44559;DHT22;30270;40.238;18.256;2022-07-15T12:21:58;32.50;62.80
44559;DHT22;30270;40.238;18.256;2022-07-15T12:27:11;32.60;62.90
44559;DHT22;30270;40.238;18.256;2022-07-15T12:29:41;32.60;62.80
44559;DHT22;30270;40.238;18.256;2022-07-15T12:32:30;32.50;63.20
44559;DHT22;30270;40.238;18.256;2022-07-15T12:35:00;32.50;62.80
44559;DHT22;30270;40.238;18.256;2022-07-15T12:40:04;32.50;63.40
44559;DHT22;30270;40.238;18.256;2022-07-15T12:42:50;32.50;64.30
44559;DHT22;30270;40.238;18.256;2022-07-15T12:48:08;32.40;63.40
44559;DHT22;30270;40.238;18.256;2022-07-15T12:50:56;32.30;63.60
44559;DHT22;30270;40.238;18.256;2022-07-15T12:53:26;32.20;64.10
44559;DHT22;30270;40.238;18.256;2022-07-15T12:55:58;32.20;64.90
44559;DHT22;30270;40.238;18.256;2022-07-15T12:58:30;32.20;65.30
44559;DHT22;30270;40.238;18.256;2022-07-15T13:01:08;32.00;64.80
44559;DHT22;30270;40.238;18.256;2022-07-15T13:03:37;31.80;64.70
44559;DHT22;30270;40.238;18.256;2022-07-15T13:06:05;31.70;64.80
44559;DHT22;30270;40.238;18.256;2022-07-15T13:08:36;31.70;64.60
44559;DHT22;30270;40.238;18.256;2022-07-15T13:11:07;31.70;64.30
44559;DHT22;30270;40.238;18.256;2022-07-15T13:13:38;31.80;64.90
44559;DHT22;30270;40.238;18.256;2022-07-15T13:16:06;31.80;63.50
44559;DHT22;30270;40.238;18.256;2022-07-15T13:18:35;31.90;63.70
44559;DHT22;30270;40.238;18.256;2022-07-15T13:21:05;31.90;64.00
44559;DHT22;30270;40.238;18.256;2022-07-15T13:23:33;32.00;64.10
44559;DHT22;30270;40.238;18.256;2022-07-15T13:26:01;32.00;63.00
44559;DHT22;30270;40.238;18.256;2022-07-15T13:28:29;32.00;63.60
44559;DHT22;30270;40.238;18.256;2022-07-15T13:30:57;32.00;62.30
44559;DHT22;30270;40.238;18.256;2022-07-15T13:33:25;32.00;62.40
44559;DHT22;30270;40.238;18.256;2022-07-15T13:35:53;32.00;62.90
44559;DHT22;30270;40.238;18.256;2022-07-15T13:38:23;32.10;62.90
44559;DHT22;30270;40.238;18.256;2022-07-15T13:40:51;32.00;60.40
44559;DHT22;30270;40.238;18.256;2022-07-15T13:43:19;32.00;60.40
44559;DHT22;30270;40.238;18.256;2022-07-15T13:45:47;32.00;61.10
44559;DHT22;30270;40.238;18.256;2022-07-15T13:48:14;32.00;61.30
44559;DHT22;30270;40.238;18.256;2022-07-15T13:50:42;32.00;61.20
44559;DHT22;30270;40.238;18.256;2022-07-15T13:53:29;32.00;59.70
44559;DHT22;30270;40.238;18.256;2022-07-15T13:55:56;32.00;60.70
44559;DHT22;30270;40.238;18.256;2022-07-15T13:58:24;31.90;60.50
44559;DHT22;30270;40.238;18.256;2022-07-15T14:00:52;31.90;59.90
44559;DHT22;30270;40.238;18.256;2022-07-15T14:03:19;32.00;60.40
44559;DHT22;30270;40.238;18.256;2022-07-15T14:05:47;32.00;59.60
44559;DHT22;30270;40.238;18.256;2022-07-15T14:08:15;32.00;59.60
44559;DHT22;30270;40.238;18.256;2022-07-15T14:10:42;32.00;59.00
44559;DHT22;30270;40.238;18.256;2022-07-15T14:13:10;32.00;59.90
44559;DHT22;30270;40.238;18.256;2022-07-15T14:15:38;31.90;60.40
44559;DHT22;30270;40.238;18.256;2022-07-15T14:18:06;31.90;60.80
44559;DHT22;30270;40.238;18.256;2022-07-15T14:20:36;32.00;61.10
44559;DHT22;30270;40.238;18.256;2022-07-15T14:23:04;31.90;60.20
44559;DHT22;30270;40.238;18.256;2022-07-15T14:25:32;31.80;60.50
44559;DHT22;30270;40.238;18.256;2022-07-15T14:28:00;31.80;60.80
44559;DHT22;30270;40.238;18.256;2022-07-15T14:30:28;31.70;59.90
44559;DHT22;30270;40.238;18.256;2022-07-15T14:32:55;31.60;60.60
44559;DHT22;30270;40.238;18.256;2022-07-15T14:35:23;31.70;60.90
44559;DHT22;30270;40.238;18.256;2022-07-15T14:37:51;31.70;60.50
44559;DHT22;30270;40.238;18.256;2022-07-15T14:40:19;31.70;60.60
44559;DHT22;30270;40.238;18.256;2022-07-15T14:42:48;31.70;60.00
44559;DHT22;30270;40.238;18.256;2022-07-15T14:45:16;31.70;59.90
44559;DHT22;30270;40.238;18.256;2022-07-15T14:47:44;31.70;59.50
44559;DHT22;30270;40.238;18.256;2022-07-15T14:50:12;31.70;59.60
44559;DHT22;30270;40.238;18.256;2022-07-15T14:52:42;31.70;58.80
44559;DHT22;30270;40.238;18.256;2022-07-15T14:55:10;31.60;58.60
44559;DHT22;30270;40.238;18.256;2022-07-15T14:57:37;31.60;57.50
44559;DHT22;30270;40.238;18.256;2022-07-15T15:00:06;31.60;56.70
44559;DHT22;30270;40.238;18.256;2022-07-15T15:02:34;31.60;56.70
44559;DHT22;30270;40.238;18.256;2022-07-15T15:05:01;31.50;56.40
44559;DHT22;30270;40.238;18.256;2022-07-15T15:07:30;31.50;56.10
44559;DHT22;30270;40.238;18.256;2022-07-15T15:09:58;31.50;55.90
44559;DHT22;30270;40.238;18.256;2022-07-15T15:12:25;31.50;55.60
44559;DHT22;30270;40.238;18.256;2022-07-15T15:14:53;31.40;55.30
44559;DHT22;30270;40.238;18.256;2022-07-15T15:17:21;31.40;55.50
44559;DHT22;30270;40.238;18.256;2022-07-15T15:19:49;31.40;55.60
44559;DHT22;30270;40.238;18.256;2022-07-15T15:22:17;31.40;56.50
44559;DHT22;30270;40.238;18.256;2022-07-15T15:24:45;31.40;56.00
44559;DHT22;30270;40.238;18.256;2022-07-15T15:27:12;31.40;56.70
44559;DHT22;30270;40.238;18.256;2022-07-15T15:29:42;31.40;56.40
44559;DHT22;30270;40.238;18.256;2022-07-15T15:32:09;31.40;56.40
44559;DHT22;30270;40.238;18.256;2022-07-15T15:34:39;31.40;55.50
44559;DHT22;30270;40.238;18.256;2022-07-15T15:37:07;31.40;56.50
44559;DHT22;30270;40.238;18.256;2022-07-15T15:39:35;31.40;56.10
44559;DHT22;30270;40.238;18.256;2022-07-15T15:42:05;31.40;56.60
44559;DHT22;30270;40.238;18.256;2022-07-15T15:44:33;31.40;55.80
44559;DHT22;30270;40.238;18.256;2022-07-15T15:47:01;31.40;56.20
44559;DHT22;30270;40.238;18.256;2022-07-15T15:49:29;31.40;56.50
44559;DHT22;30270;40.238;18.256;2022-07-15T15:51:57;31.40;55.80
44559;DHT22;30270;40.238;18.256;2022-07-15T15:54:25;31.40;56.20
44559;DHT22;30270;40.238;18.256;2022-07-15T15:56:54;31.30;55.30
44559;DHT22;30270;40.238;18.256;2022-07-15T15:59:22;31.20;55.00
44559;DHT22;30270;40.238;18.256;2022-07-15T16:01:49;31.20;55.00
44559;DHT22;30270;40.238;18.256;2022-07-15T16:04:17;31.20;55.00
44559;DHT22;30270;40.238;18.256;2022-07-15T16:06:45;31.20;55.60
44559;DHT22;30270;40.238;18.256;2022-07-15T16:09:12;31.20;55.50
44559;DHT22;30270;40.238;18.256;2022-07-15T16:11:40;31.20;55.50
44559;DHT22;30270;40.238;18.256;2022-07-15T16:14:08;31.10;55.50
44559;DHT22;30270;40.238;18.256;2022-07-15T16:16:35;31.10;56.20
44559;DHT22;30270;40.238;18.256;2022-07-15T16:19:03;31.20;56.20